Wizard — WDC6082 — position and weather

sailwx.info

Track history (hours):
 
Tides and Currents Weather Stations Pressure Air Temp Water Temp Dewpoint Dewpoint Depression Visibility Wind Speed Wind Dir Waves Ship Positions

Wizard

Owner: K. H.Colburn Inc, Redmond, WA. More information available from US FCC via Universal Licensing System and Coast Guard Vessel Documentation Center.

Last reported at 2016-Apr-30 12:34 UTC. Time now 2016-Apr-30 13:09 UTC.
Position N 47°39' W 122°20'.

Length 52 m; draft 0.4 m.

MMSI: 5491.

Date/timePositionNaut miles runAvg speedWind from/ knotsBaromVisibWave heightAir tempDewpointWater temp
2016-Apr-30 12:34N 47°39' W 122°20'0 0.0
2016-Apr-30 11:34N 47°39' W 122°20'0 0.0
2016-Apr-30 10:33N 47°39' W 122°20'0 0.0
2016-Apr-30 09:34N 47°39' W 122°20'0 0.0
2016-Apr-30 08:33N 47°39' W 122°20'0 0.0
2016-Apr-30 07:33N 47°39' W 122°20'0 0.0
2016-Apr-30 06:34N 47°39' W 122°20'0 0.0
2016-Apr-30 05:34N 47°39' W 122°20'0 0.0
2016-Apr-30 04:33N 47°39' W 122°20'0 0.0
2016-Apr-30 03:33N 47°39' W 122°20'0 0.0
2016-Apr-30 02:34N 47°39' W 122°20'0 0.0
2016-Apr-30 01:32N 47°39' W 122°20'0 0.0
2016-Apr-30 00:31N 47°39' W 122°20'0 0.0
2016-Apr-29 23:33N 47°39' W 122°20'0 0.0
2016-Apr-29 22:34N 47°39' W 122°20'0 0.0
2016-Apr-29 21:33N 47°39' W 122°20'0 0.0
2016-Apr-29 20:33N 47°39' W 122°20'0 0.0
2016-Apr-29 19:33N 47°39' W 122°20'0 0.0
2016-Apr-29 18:33N 47°39' W 122°20'0 0.0
2016-Apr-29 17:33N 47°39' W 122°20'0 0.0
2016-Apr-29 16:33N 47°39' W 122°20'0 0.0
2016-Apr-29 15:33N 47°39' W 122°20'0 0.0
2016-Apr-29 14:33N 47°39' W 122°20'0 0.0
2016-Apr-29 13:33N 47°39' W 122°20'0 0.0
2016-Apr-29 12:33N 47°39' W 122°20'0 0.0
2016-Apr-29 11:33N 47°39' W 122°20'0 0.0
2016-Apr-29 10:33N 47°39' W 122°20'0 0.0
2016-Apr-29 09:34N 47°39' W 122°20'0 0.0
2016-Apr-29 08:32N 47°39' W 122°20'0 0.0
2016-Apr-29 07:33N 47°39' W 122°20'0 0.0
2016-Apr-29 06:33N 47°39' W 122°20'0 0.0
2016-Apr-29 05:33N 47°39' W 122°20'0 0.0
2016-Apr-29 04:33N 47°39' W 122°20'0 0.0
2016-Apr-29 03:33N 47°39' W 122°20'0 0.0
2016-Apr-29 02:33N 47°39' W 122°20'0 0.0
2016-Apr-29 01:29N 47°39' W 122°20'0 0.0
2016-Apr-29 00:25N 47°39' W 122°20'0 0.0
2016-Apr-28 23:34N 47°39' W 122°20'0 0.0
2016-Apr-28 22:33N 47°39' W 122°20'0 0.0
2016-Apr-28 21:33N 47°39' W 122°20'0 0.0
2016-Apr-28 20:32N 47°39' W 122°20'0 0.0
2016-Apr-28 19:33N 47°39' W 122°20'0 0.0
2016-Apr-28 18:33N 47°39' W 122°20'0 0.0
2016-Apr-28 17:33N 47°39' W 122°20'0 0.0
2016-Apr-28 16:33N 47°39' W 122°20'0 0.0
2016-Apr-28 15:33N 47°39' W 122°20'0 0.0
2016-Apr-28 14:33N 47°39' W 122°20'0 0.0
2016-Apr-28 13:33N 47°39' W 122°20'0 0.0
2016-Apr-28 12:33N 47°39' W 122°20'0 0.0
2016-Apr-28 11:33N 47°39' W 122°20'0 0.0
2016-Apr-28 10:33N 47°39' W 122°20'0 0.0
2016-Apr-28 09:33N 47°39' W 122°20'0 0.0
2016-Apr-28 08:33N 47°39' W 122°20'0 0.0
2016-Apr-28 07:33N 47°39' W 122°20'0 0.0
2016-Apr-28 06:33N 47°39' W 122°20'0 0.0
2016-Apr-28 05:33N 47°39' W 122°20'0 0.0
2016-Apr-28 04:20N 47°39' W 122°20'0 0.0
2016-Apr-28 03:32N 47°39' W 122°20'0 0.0
2016-Apr-28 02:24N 47°39' W 122°20'0 0.0
2016-Apr-28 01:33N 47°39' W 122°20'0 0.0
2016-Apr-28 00:34N 47°39' W 122°20'0 0.0
2016-Apr-27 23:33N 47°39' W 122°20'0 0.0
2016-Apr-27 22:33N 47°39' W 122°20'0 0.0
2016-Apr-27 21:32N 47°39' W 122°20'0 0.0
2016-Apr-27 20:33N 47°39' W 122°20'0 0.0
2016-Apr-27 19:33N 47°39' W 122°20'0 0.0
2016-Apr-27 18:32N 47°39' W 122°20'0 0.0
2016-Apr-27 17:32N 47°39' W 122°20'0 0.0
2016-Apr-27 16:33N 47°39' W 122°20'0 0.0
2016-Apr-27 15:33N 47°39' W 122°20'0 0.0
2016-Apr-27 14:33N 47°39' W 122°20'0 0.0
2016-Apr-27 13:33N 47°39' W 122°20'0 0.0
2016-Apr-27 12:33N 47°39' W 122°20'0 0.0
2016-Apr-27 11:33N 47°39' W 122°20'2 2.1
2016-Apr-27 10:34N 47°40' W 122°23'3 3.3
2016-Apr-27 09:33N 47°42' W 122°26'10 9.7
2016-Apr-27 08:33N 47°52' W 122°29'8 8.2
2016-Apr-27 07:33N 47°58' W 122°36'10 8.3
2016-Apr-27 06:21N 48°08' W 122°42'7 8.6
2016-Apr-27 05:31N 48°11' W 122°52'1010.8
2016-Apr-27 04:33N 48°12' W 123°07'1111.1
2016-Apr-27 03:33N 48°12' W 123°24'1111.2
2016-Apr-27 02:34N 48°13' W 123°41'1211.1
2016-Apr-27 01:30N 48°14' W 123°58'5510.0
2016-Apr-26 20:04N 48°34' W 125°15'5 8.8
2016-Apr-26 19:32N 48°36' W 125°21'9 9.3
2016-Apr-26 18:33N 48°40' W 125°33'9 9.2
2016-Apr-26 17:34N 48°44' W 125°46'9 9.1
2016-Apr-26 16:33N 48°48' W 125°58'9 9.2
2016-Apr-26 15:33N 48°52' W 126°11'10 9.3
2016-Apr-26 14:30N 48°56' W 126°25'  
Track history (hours):
 
Tides and Currents Weather Stations Pressure Air Temp Water Temp Dewpoint Dewpoint Depression Visibility Wind Speed Wind Dir Waves Ship Positions

Wizard

Owner: K. H.Colburn Inc, Redmond, WA. More information available from US FCC via Universal Licensing System and Coast Guard Vessel Documentation Center.

Last reported at 2016-Apr-30 12:34 UTC. Time now 2016-Apr-30 13:09 UTC.
Position N 47°39' W 122°20'.

Length 52 m; draft 0.4 m.

MMSI: 5491.

Date/timePositionNaut miles runAvg speedWind from/ knotsBaromVisibWave heightAir tempDewpointWater temp
2016-Apr-30 12:34N 47°39' W 122°20'0 0.0
2016-Apr-30 11:34N 47°39' W 122°20'0 0.0
2016-Apr-30 10:33N 47°39' W 122°20'0 0.0
2016-Apr-30 09:34N 47°39' W 122°20'0 0.0
2016-Apr-30 08:33N 47°39' W 122°20'0 0.0
2016-Apr-30 07:33N 47°39' W 122°20'0 0.0
2016-Apr-30 06:34N 47°39' W 122°20'0 0.0
2016-Apr-30 05:34N 47°39' W 122°20'0 0.0
2016-Apr-30 04:33N 47°39' W 122°20'0 0.0
2016-Apr-30 03:33N 47°39' W 122°20'0 0.0
2016-Apr-30 02:34N 47°39' W 122°20'0 0.0
2016-Apr-30 01:32N 47°39' W 122°20'0 0.0
2016-Apr-30 00:31N 47°39' W 122°20'0 0.0
2016-Apr-29 23:33N 47°39' W 122°20'0 0.0
2016-Apr-29 22:34N 47°39' W 122°20'0 0.0
2016-Apr-29 21:33N 47°39' W 122°20'0 0.0
2016-Apr-29 20:33N 47°39' W 122°20'0 0.0
2016-Apr-29 19:33N 47°39' W 122°20'0 0.0
2016-Apr-29 18:33N 47°39' W 122°20'0 0.0
2016-Apr-29 17:33N 47°39' W 122°20'0 0.0
2016-Apr-29 16:33N 47°39' W 122°20'0 0.0
2016-Apr-29 15:33N 47°39' W 122°20'0 0.0
2016-Apr-29 14:33N 47°39' W 122°20'0 0.0
2016-Apr-29 13:33N 47°39' W 122°20'0 0.0
2016-Apr-29 12:33N 47°39' W 122°20'0 0.0
2016-Apr-29 11:33N 47°39' W 122°20'0 0.0
2016-Apr-29 10:33N 47°39' W 122°20'0 0.0
2016-Apr-29 09:34N 47°39' W 122°20'0 0.0
2016-Apr-29 08:32N 47°39' W 122°20'0 0.0
2016-Apr-29 07:33N 47°39' W 122°20'0 0.0
2016-Apr-29 06:33N 47°39' W 122°20'0 0.0
2016-Apr-29 05:33N 47°39' W 122°20'0 0.0
2016-Apr-29 04:33N 47°39' W 122°20'0 0.0
2016-Apr-29 03:33N 47°39' W 122°20'0 0.0
2016-Apr-29 02:33N 47°39' W 122°20'0 0.0
2016-Apr-29 01:29N 47°39' W 122°20'0 0.0
2016-Apr-29 00:25N 47°39' W 122°20'0 0.0
2016-Apr-28 23:34N 47°39' W 122°20'0 0.0
2016-Apr-28 22:33N 47°39' W 122°20'0 0.0
2016-Apr-28 21:33N 47°39' W 122°20'0 0.0
2016-Apr-28 20:32N 47°39' W 122°20'0 0.0
2016-Apr-28 19:33N 47°39' W 122°20'0 0.0
2016-Apr-28 18:33N 47°39' W 122°20'0 0.0
2016-Apr-28 17:33N 47°39' W 122°20'0 0.0
2016-Apr-28 16:33N 47°39' W 122°20'0 0.0
2016-Apr-28 15:33N 47°39' W 122°20'0 0.0
2016-Apr-28 14:33N 47°39' W 122°20'0 0.0
2016-Apr-28 13:33N 47°39' W 122°20'0 0.0
2016-Apr-28 12:33N 47°39' W 122°20'0 0.0
2016-Apr-28 11:33N 47°39' W 122°20'0 0.0
2016-Apr-28 10:33N 47°39' W 122°20'0 0.0
2016-Apr-28 09:33N 47°39' W 122°20'0 0.0
2016-Apr-28 08:33N 47°39' W 122°20'0 0.0
2016-Apr-28 07:33N 47°39' W 122°20'0 0.0
2016-Apr-28 06:33N 47°39' W 122°20'0 0.0
2016-Apr-28 05:33N 47°39' W 122°20'0 0.0
2016-Apr-28 04:20N 47°39' W 122°20'0 0.0
2016-Apr-28 03:32N 47°39' W 122°20'0 0.0
2016-Apr-28 02:24N 47°39' W 122°20'0 0.0
2016-Apr-28 01:33N 47°39' W 122°20'0 0.0
2016-Apr-28 00:34N 47°39' W 122°20'0 0.0
2016-Apr-27 23:33N 47°39' W 122°20'0 0.0
2016-Apr-27 22:33N 47°39' W 122°20'0 0.0
2016-Apr-27 21:32N 47°39' W 122°20'0 0.0
2016-Apr-27 20:33N 47°39' W 122°20'0 0.0
2016-Apr-27 19:33N 47°39' W 122°20'0 0.0
2016-Apr-27 18:32N 47°39' W 122°20'0 0.0
2016-Apr-27 17:32N 47°39' W 122°20'0 0.0
2016-Apr-27 16:33N 47°39' W 122°20'0 0.0
2016-Apr-27 15:33N 47°39' W 122°20'0 0.0
2016-Apr-27 14:33N 47°39' W 122°20'0 0.0
2016-Apr-27 13:33N 47°39' W 122°20'0 0.0
2016-Apr-27 12:33N 47°39' W 122°20'0 0.0
2016-Apr-27 11:33N 47°39' W 122°20'2 2.1
2016-Apr-27 10:34N 47°40' W 122°23'3 3.3
2016-Apr-27 09:33N 47°42' W 122°26'10 9.7
2016-Apr-27 08:33N 47°52' W 122°29'8 8.2
2016-Apr-27 07:33N 47°58' W 122°36'10 8.3
2016-Apr-27 06:21N 48°08' W 122°42'7 8.6
2016-Apr-27 05:31N 48°11' W 122°52'1010.8
2016-Apr-27 04:33N 48°12' W 123°07'1111.1
2016-Apr-27 03:33N 48°12' W 123°24'1111.2
2016-Apr-27 02:34N 48°13' W 123°41'1211.1
2016-Apr-27 01:30N 48°14' W 123°58'5510.0
2016-Apr-26 20:04N 48°34' W 125°15'5 8.8
2016-Apr-26 19:32N 48°36' W 125°21'9 9.3
2016-Apr-26 18:33N 48°40' W 125°33'9 9.2
2016-Apr-26 17:34N 48°44' W 125°46'9 9.1
2016-Apr-26 16:33N 48°48' W 125°58'9 9.2
2016-Apr-26 15:33N 48°52' W 126°11'10 9.3
2016-Apr-26 14:30N 48°56' W 126°25'  

Dump ship's entire track history